Time;durP1;ratioP1;P1;durP2;ratioP2;P2;SDS_P1;SDS_P2;PMS_P1;PMS_P2;Temp;Humidity;BMP_temperature;BMP_pressure;BME280_temperature;BME280_humidity;BME280_pressure;Samples;Min_cycle;Max_cycle;Signal;HPM_P1;HPM_P2
2021/08/15 00:02:00;;;;;;;9.98;3.30;;;;;;;18.74;70.04;101822.22;4967870;28;20049;-49
2021/08/15 00:04:26;;;;;;;11.70;3.67;;;;;;;18.67;70.02;101823.13;4966847;28;20521;-47
2021/08/15 00:06:52;;;;;;;11.55;3.65;;;;;;;18.51;71.93;101816.13;4965776;28;20072;-47
2021/08/15 00:09:17;;;;;;;7.20;3.30;;;;;;;18.49;71.32;101810.84;4977980;28;20041;-47
2021/08/15 00:11:43;;;;;;;7.38;3.20;;;;;;;18.39;72.05;101795.94;4967309;28;20034;-46
2021/08/15 00:14:08;;;;;;;8.73;3.50;;;;;;;18.31;72.43;101781.00;4951750;28;20027;-46
2021/08/15 00:16:35;;;;;;;5.45;2.97;;;;;;;18.34;72.27;101786.28;4968656;28;20030;-52
2021/08/15 00:19:05;;;;;;;5.57;2.47;;;;;;;18.29;71.95;101783.69;4962122;28;20040;-49
2021/08/15 00:21:32;;;;;;;6.05;3.13;;;;;;;18.25;72.09;101790.72;4966564;28;20034;-46
2021/08/15 00:23:58;;;;;;;4.85;2.63;;;;;;;18.25;72.04;101789.81;4964422;28;20407;-45
2021/08/15 00:26:24;;;;;;;6.50;2.80;;;;;;;18.24;72.08;101798.63;4960521;28;20571;-46
2021/08/15 00:28:49;;;;;;;5.93;3.05;;;;;;;18.25;72.67;101795.09;4963625;28;20415;-47
2021/08/15 00:31:15;;;;;;;5.00;3.00;;;;;;;18.31;72.84;101799.47;4968444;28;20117;-47
2021/08/15 00:33:40;;;;;;;5.55;3.00;;;;;;;18.28;72.55;101779.28;4964415;28;20034;-52
2021/08/15 00:36:05;;;;;;;5.13;2.60;;;;;;;18.24;72.94;101783.66;4969366;28;20116;-47
2021/08/15 00:38:31;;;;;;;5.13;2.92;;;;;;;18.19;73.10;101780.16;4964843;28;20022;-50
2021/08/15 00:40:56;;;;;;;9.02;3.15;;;;;;;18.17;72.83;101774.03;4964728;28;20506;-48
2021/08/15 00:43:21;;;;;;;7.60;3.17;;;;;;;18.15;72.86;101780.19;4964272;28;20145;-48
2021/08/15 00:45:47;;;;;;;7.88;3.30;;;;;;;18.09;73.18;101777.56;4966589;28;20065;-46
2021/08/15 00:48:12;;;;;;;6.47;2.97;;;;;;;18.08;72.63;101775.81;4972771;28;20023;-48
2021/08/15 00:50:38;;;;;;;8.18;2.90;;;;;;;18.01;72.89;101781.97;4961102;28;20112;-47
2021/08/15 00:53:05;;;;;;;5.95;2.90;;;;;;;17.94;72.91;101770.56;4965044;28;20109;-48
2021/08/15 00:55:32;;;;;;;7.00;2.90;;;;;;;17.89;73.43;101782.03;4965201;28;20471;-49
2021/08/15 00:57:58;;;;;;;5.25;2.55;;;;;;;17.85;73.44;101778.53;4968636;28;20118;-46
2021/08/15 01:00:23;;;;;;;4.55;2.47;;;;;;;17.84;73.36;101782.03;4962358;28;20034;-46
2021/08/15 01:02:50;;;;;;;5.88;2.63;;;;;;;17.78;73.95;101779.41;4968464;28;20335;-50
2021/08/15 01:05:16;;;;;;;6.57;3.03;;;;;;;17.70;74.98;101770.63;4953063;28;20030;-48
2021/08/15 01:07:42;;;;;;;8.65;3.55;;;;;;;17.67;76.11;101763.63;4968471;28;20026;-47
2021/08/15 01:10:11;;;;;;;5.88;3.22;;;;;;;17.73;75.56;101760.09;4967238;28;20037;-48
2021/08/15 01:12:36;;;;;;;5.60;2.90;;;;;;;17.74;75.33;101754.81;4961358;28;20105;-48
2021/08/15 01:15:03;;;;;;;5.88;3.05;;;;;;;17.81;74.76;101751.25;4963325;28;20808;-48
2021/08/15 01:17:29;;;;;;;7.60;3.22;;;;;;;17.82;74.86;101750.38;4962272;28;20074;-46
2021/08/15 01:19:55;;;;;;;4.93;3.00;;;;;;;17.86;74.47;101740.72;4961483;28;20105;-47
2021/08/15 01:22:24;;;;;;;7.28;3.08;;;;;;;17.87;74.58;101737.16;4958581;28;20465;-48
2021/08/15 01:24:51;;;;;;;7.05;3.10;;;;;;;17.88;74.24;101740.69;4975203;28;20191;-51
2021/08/15 01:27:16;;;;;;;7.68;3.17;;;;;;;17.90;74.37;101738.94;4972387;28;20041;-47
2021/08/15 01:29:44;;;;;;;7.63;3.15;;;;;;;17.90;74.31;101741.56;4961034;28;20478;-46
2021/08/15 01:32:11;;;;;;;7.00;3.05;;;;;;;17.93;74.22;101741.56;4973327;28;20037;-48
2021/08/15 01:34:37;;;;;;;7.00;3.22;;;;;;;17.93;74.44;101738.94;4971267;28;20034;-46
2021/08/15 01:37:02;;;;;;;5.93;3.08;;;;;;;17.98;74.09;101738.03;4961946;28;20030;-47
2021/08/15 01:39:28;;;;;;;7.95;3.00;;;;;;;18.00;74.02;101732.72;4964088;28;20038;-48
2021/08/15 01:41:53;;;;;;;7.38;3.22;;;;;;;17.97;74.30;101731.00;4969890;28;20034;-51
2021/08/15 01:44:18;;;;;;;5.30;2.80;;;;;;;17.97;74.14;101731.00;4966866;28;20035;-49
2021/08/15 01:46:44;;;;;;;5.75;2.90;;;;;;;17.95;74.15;101738.03;4968106;28;20042;-48
2021/08/15 01:49:09;;;;;;;6.03;2.63;;;;;;;17.94;73.66;101741.53;4963310;28;20030;-52
2021/08/15 01:51:35;;;;;;;6.45;2.58;;;;;;;17.94;73.33;101744.19;4961134;28;20046;-48
2021/08/15 01:54:02;;;;;;;7.15;3.00;;;;;;;17.90;73.85;101731.00;4970213;28;20840;-52
2021/08/15 01:56:28;;;;;;;9.40;3.00;;;;;;;17.90;73.80;101729.25;4967665;28;20627;-47
2021/08/15 01:58:53;;;;;;;6.57;2.83;;;;;;;17.87;73.72;101728.41;4967051;28;20368;-50
2021/08/15 02:01:20;;;;;;;9.82;3.15;;;;;;;17.83;74.28;101712.56;4971884;28;20042;-48
2021/08/15 02:03:46;;;;;;;8.40;3.40;;;;;;;17.80;74.84;101717.88;4966175;28;20116;-47
2021/08/15 02:06:12;;;;;;;6.07;2.85;;;;;;;17.82;74.34;101708.16;4969949;28;20030;-47
2021/08/15 02:08:38;;;;;;;7.50;3.58;;;;;;;17.77;74.48;101696.75;4964258;28;20217;-52
2021/08/15 02:11:03;;;;;;;6.05;2.97;;;;;;;17.81;74.01;101695.84;4966389;28;20034;-47
2021/08/15 02:13:28;;;;;;;7.07;3.50;;;;;;;17.79;74.25;101699.41;4967418;28;20073;-47
2021/08/15 02:15:54;;;;;;;11.07;3.47;;;;;;;17.79;74.04;101687.09;4970811;28;20034;-46
2021/08/15 02:18:19;;;;;;;5.97;2.88;;;;;;;17.77;73.90;101683.56;4967057;28;20121;-46
2021/08/15 02:20:44;;;;;;;9.02;3.08;;;;;;;17.81;74.02;101676.53;4967776;28;20494;-48
2021/08/15 02:23:10;;;;;;;6.97;3.42;;;;;;;17.80;73.67;101680.94;4968168;28;20133;-49
2021/08/15 02:25:36;;;;;;;8.98;3.58;;;;;;;17.84;73.61;101680.03;4965435;28;20117;-48
2021/08/15 02:28:02;;;;;;;8.75;3.50;;;;;;;17.87;73.48;101673.84;4969692;28;20879;-50
2021/08/15 02:30:28;;;;;;;5.05;3.17;;;;;;;17.88;73.45;101682.66;4961620;28;20022;-47
2021/08/15 02:32:53;;;;;;;9.68;3.95;;;;;;;17.84;73.52;101671.25;4972582;28;20060;-48
2021/08/15 02:35:20;;;;;;;8.60;3.88;;;;;;;17.85;73.59;101659.81;4959215;28;20048;-48
2021/08/15 02:37:47;;;;;;;6.57;4.10;;;;;;;17.74;74.24;101643.16;4952536;28;20054;-49
2021/08/15 02:40:14;;;;;;;8.43;3.58;;;;;;;17.68;74.29;101646.69;4986715;28;20398;-48
2021/08/15 02:42:41;;;;;;;10.25;3.70;;;;;;;17.70;74.24;101646.66;4969144;28;20180;-47
2021/08/15 02:45:09;;;;;;;11.43;3.30;;;;;;;17.67;74.23;101654.59;4964630;28;20026;-47
2021/08/15 02:47:34;;;;;;;9.50;3.65;;;;;;;17.65;74.29;101651.09;4969305;28;20121;-46
2021/08/15 02:49:59;;;;;;;12.65;4.40;;;;;;;17.63;74.92;101642.28;4965701;28;20475;-50
2021/08/15 02:52:25;;;;;;;10.85;4.60;;;;;;;17.67;75.16;101638.78;4965893;28;20052;-48
2021/08/15 02:54:50;;;;;;;8.70;3.55;;;;;;;17.64;74.61;101654.59;4966731;28;20110;-47
2021/08/15 02:57:16;;;;;;;12.02;4.20;;;;;;;17.65;74.47;101653.72;4968947;28;20022;-48
2021/08/15 02:59:41;;;;;;;8.40;4.25;;;;;;;17.62;74.79;101664.31;4966669;28;20042;-51
2021/08/15 03:02:14;;;;;;;9.70;3.75;;;;;;;17.61;74.71;101675.72;4969962;28;20580;-47
2021/08/15 03:04:41;;;;;;;8.25;3.80;;;;;;;17.62;74.45;101683.63;4965780;28;20117;-48
2021/08/15 03:07:09;;;;;;;9.50;3.60;;;;;;;17.62;74.79;101674.84;4972211;28;20018;-47
2021/08/15 03:09:35;;;;;;;9.10;4.00;;;;;;;17.62;75.11;101669.56;4960414;28;20054;-48
2021/08/15 03:12:00;;;;;;;8.25;3.60;;;;;;;17.62;74.88;101670.44;4962272;28;20109;-46
2021/08/15 03:14:26;;;;;;;12.07;4.60;;;;;;;17.63;75.79;101663.38;4972359;28;20027;-47
2021/08/15 03:16:51;;;;;;;11.18;4.63;;;;;;;17.62;75.48;101659.03;4962735;28;20069;-47
2021/08/15 03:19:16;;;;;;;9.88;4.55;;;;;;;17.63;75.36;101661.63;4968145;28;20037;-46
2021/08/15 03:21:42;;;;;;;11.52;5.15;;;;;;;17.64;75.60;101660.75;4961491;28;20157;-49
2021/08/15 03:24:08;;;;;;;8.57;4.38;;;;;;;17.65;75.40;101665.16;4968620;28;20667;-48
2021/08/15 03:26:36;;;;;;;8.05;3.83;;;;;;;17.66;75.39;101658.13;4963456;28;20023;-46
2021/08/15 03:29:01;;;;;;;10.68;4.22;;;;;;;17.65;75.39;101656.38;4973185;28;20117;-50
2021/08/15 03:31:27;;;;;;;10.48;4.80;;;;;;;17.64;75.56;101647.56;4960013;28;20034;-47
2021/08/15 03:33:52;;;;;;;10.65;4.80;;;;;;;17.68;75.83;101638.78;4969343;28;20030;-51
2021/08/15 03:36:17;;;;;;;10.73;5.22;;;;;;;17.74;75.39;101641.41;4973515;28;20040;-49
2021/08/15 03:38:43;;;;;;;8.95;4.72;;;;;;;17.73;75.37;101633.50;4968000;28;20397;-46
2021/08/15 03:41:09;;;;;;;8.80;4.57;;;;;;;17.74;75.55;101632.63;4965929;28;20030;-50
2021/08/15 03:43:34;;;;;;;13.13;5.18;;;;;;;17.77;75.90;101625.56;4973756;28;20038;-47
2021/08/15 03:45:59;;;;;;;10.45;3.95;;;;;;;17.76;75.81;101626.44;4970497;28;20032;-49
2021/08/15 03:48:25;;;;;;;11.73;4.55;;;;;;;17.78;75.62;101622.03;4963433;28;20362;-46
2021/08/15 03:50:50;;;;;;;9.40;4.30;;;;;;;17.83;75.49;101625.53;4965347;28;20554;-47
2021/08/15 03:53:16;;;;;;;9.48;4.70;;;;;;;17.82;75.60;101620.25;4953668;28;20081;-46
2021/08/15 03:55:41;;;;;;;11.40;4.95;;;;;;;17.82;75.56;101628.16;4967048;28;20042;-50
2021/08/15 03:58:06;;;;;;;8.98;4.30;;;;;;;17.82;75.49;101636.06;4970103;28;20030;-50
2021/08/15 04:00:32;;;;;;;11.27;4.85;;;;;;;17.80;76.18;101617.63;4963370;28;20441;-51
2021/08/15 04:02:58;;;;;;;9.02;4.65;;;;;;;17.81;75.74;101616.72;4966991;28;20098;-47
2021/08/15 04:05:23;;;;;;;16.63;5.22;;;;;;;17.78;75.95;101626.44;4965065;28;20113;-48
2021/08/15 04:07:48;;;;;;;10.95;4.38;;;;;;;17.77;75.66;101620.28;4963795;28;20160;-47
2021/08/15 04:10:14;;;;;;;11.90;4.60;;;;;;;17.76;75.84;101615.88;4969309;28;20033;-48
2021/08/15 04:12:39;;;;;;;9.20;4.50;;;;;;;17.77;76.04;101611.47;4966686;28;20116;-48
2021/08/15 04:15:05;;;;;;;11.13;4.80;;;;;;;17.72;76.07;101602.72;4963624;28;20124;-48
2021/08/15 04:17:30;;;;;;;13.50;5.22;;;;;;;17.69;76.41;101603.59;4957367;28;20034;-48
2021/08/15 04:19:56;;;;;;;10.68;4.72;;;;;;;17.68;76.46;101607.16;4961176;28;20042;-49
2021/08/15 04:22:21;;;;;;;12.32;5.07;;;;;;;17.65;76.54;101601.88;4960734;28;20046;-48
2021/08/15 04:24:46;;;;;;;12.20;5.18;;;;;;;17.63;76.64;101594.84;4966402;28;20070;-47
2021/08/15 04:27:12;;;;;;;11.10;4.85;;;;;;;17.63;76.74;101590.44;4966095;28;20026;-50
2021/08/15 04:29:39;;;;;;;13.90;5.45;;;;;;;17.56;77.18;101590.47;4966432;28;20558;-49
2021/08/15 04:32:06;;;;;;;11.73;4.90;;;;;;;17.56;76.72;101583.44;4960584;28;20415;-48
2021/08/15 04:34:32;;;;;;;13.43;5.22;;;;;;;17.52;77.10;101592.22;4966103;28;20485;-49
2021/08/15 04:36:58;;;;;;;18.52;5.35;;;;;;;17.50;77.77;101590.47;4968101;28;20103;-50
2021/08/15 04:39:23;;;;;;;13.40;5.85;;;;;;;17.50;77.46;101582.56;4962866;28;20054;-53
2021/08/15 04:41:49;;;;;;;15.25;5.47;;;;;;;17.49;77.96;101576.41;4964955;28;20030;-48
2021/08/15 04:44:14;;;;;;;17.17;5.85;;;;;;;17.53;77.81;101580.78;4967870;28;20423;-47
2021/08/15 04:46:39;;;;;;;12.55;5.53;;;;;;;17.56;77.85;101578.16;4964257;28;20022;-51
2021/08/15 04:49:05;;;;;;;15.48;5.22;;;;;;;17.59;78.36;101575.50;4964199;28;20746;-52
2021/08/15 04:51:30;;;;;;;16.77;6.28;;;;;;;17.66;78.05;101584.28;4964227;28;20489;-52
2021/08/15 04:53:55;;;;;;;16.17;5.68;;;;;;;17.70;77.88;101583.38;4964413;28;20345;-47
2021/08/15 04:56:21;;;;;;;14.70;6.05;;;;;;;17.74;77.98;101574.59;4965403;28;20122;-48
2021/08/15 04:58:46;;;;;;;18.25;7.00;;;;;;;17.76;77.86;101572.81;4969901;28;20081;-52
2021/08/15 05:01:12;;;;;;;17.58;6.45;;;;;;;17.85;77.66;101575.41;4967547;28;20422;-47
2021/08/15 05:03:37;;;;;;;21.73;6.15;;;;;;;17.90;77.55;101578.88;4968546;28;20126;-48
2021/08/15 05:06:03;;;;;;;15.55;6.13;;;;;;;17.97;77.22;101577.97;4983633;28;20125;-52
2021/08/15 05:08:29;;;;;;;15.23;6.43;;;;;;;18.08;77.07;101577.91;4966691;28;20025;-48
2021/08/15 05:10:54;;;;;;;15.57;6.60;;;;;;;18.17;76.90;101575.22;4965108;28;20134;-52
2021/08/15 05:13:20;;;;;;;17.92;6.30;;;;;;;18.24;76.77;101576.91;4963346;28;20384;-48
2021/08/15 05:15:45;;;;;;;17.13;6.57;;;;;;;18.35;76.55;101576.84;4963165;28;20510;-47
2021/08/15 05:18:13;;;;;;;17.27;6.57;;;;;;;18.42;76.04;101571.50;4975701;28;20430;-46
2021/08/15 05:20:39;;;;;;;14.52;6.15;;;;;;;18.48;75.99;101565.31;4967412;28;20040;-47
2021/08/15 05:23:04;;;;;;;15.45;6.55;;;;;;;18.52;75.57;101582.88;4969174;28;20035;-52
2021/08/15 05:25:30;;;;;;;16.33;6.15;;;;;;;18.56;75.51;101581.97;4969134;28;20096;-50
2021/08/15 05:27:55;;;;;;;15.00;6.28;;;;;;;18.64;75.50;101577.53;4967635;28;20260;-48
2021/08/15 05:30:20;;;;;;;14.90;6.50;;;;;;;18.74;75.17;101576.53;4967108;28;20031;-48
2021/08/15 05:32:46;;;;;;;16.67;6.45;;;;;;;18.81;75.03;101574.72;4970130;28;20029;-46
2021/08/15 05:35:13;;;;;;;14.95;6.57;;;;;;;18.88;74.54;101576.41;4976193;28;20084;-48
2021/08/15 05:37:39;;;;;;;14.60;6.63;;;;;;;18.93;74.01;101564.03;4964541;28;20533;-48
2021/08/15 05:40:06;;;;;;;15.10;5.90;;;;;;;18.93;73.79;101559.63;4970047;28;20034;-49
2021/08/15 05:42:31;;;;;;;16.67;6.53;;;;;;;19.15;73.24;101556.78;4969715;28;20072;-49
2021/08/15 05:44:56;;;;;;;19.17;6.57;;;;;;;19.21;72.81;101562.00;4965383;28;20018;-46
2021/08/15 05:47:22;;;;;;;14.15;6.20;;;;;;;19.26;72.92;101558.41;4966570;28;20468;-48
2021/08/15 05:49:47;;;;;;;15.00;5.88;;;;;;;19.27;73.04;101557.50;4968194;28;20054;-47
2021/08/15 05:52:15;;;;;;;14.55;6.30;;;;;;;19.29;73.47;101561.00;4962926;28;20351;-48
2021/08/15 05:54:41;;;;;;;16.13;5.90;;;;;;;19.43;72.93;101563.50;4964961;28;20447;-46
2021/08/15 05:57:06;;;;;;;17.48;5.97;;;;;;;19.53;72.44;101562.50;4967664;28;20098;-47
2021/08/15 05:59:33;;;;;;;13.70;6.00;;;;;;;19.63;72.18;101555.34;4964261;28;20034;-47
2021/08/15 06:01:59;;;;;;;20.27;5.93;;;;;;;19.71;71.86;101558.75;4963073;28;20034;-47
2021/08/15 06:04:24;;;;;;;14.40;5.80;;;;;;;19.80;71.16;101559.50;4966875;28;20369;-47
2021/08/15 06:06:50;;;;;;;16.35;5.70;;;;;;;19.78;70.87;101557.78;4971090;28;20132;-47
2021/08/15 06:09:15;;;;;;;15.27;5.47;;;;;;;19.83;70.41;101561.22;4946524;28;20026;-48
2021/08/15 06:11:40;;;;;;;15.60;5.70;;;;;;;19.84;70.82;101566.50;4968506;28;20397;-47
2021/08/15 06:14:06;;;;;;;15.73;6.03;;;;;;;19.83;70.73;101561.22;4969173;28;21413;-46
2021/08/15 06:16:31;;;;;;;17.13;5.90;;;;;;;19.85;70.99;101552.38;4967123;28;20030;-50
2021/08/15 06:18:57;;;;;;;14.50;5.45;;;;;;;19.97;71.31;101556.63;4967191;28;20463;-48
2021/08/15 06:21:22;;;;;;;14.30;5.50;;;;;;;20.07;70.89;101563.53;4962148;28;20069;-49
2021/08/15 06:23:49;;;;;;;14.65;5.45;;;;;;;20.09;70.15;101556.44;4969074;28;20450;-47
2021/08/15 06:26:15;;;;;;;16.27;5.57;;;;;;;20.08;70.44;101559.97;4960287;28;20027;-47
2021/08/15 06:28:40;;;;;;;15.93;5.78;;;;;;;19.99;70.89;101549.53;4965185;28;20482;-49
2021/08/15 06:31:06;;;;;;;17.38;6.10;;;;;;;19.91;70.90;101548.78;4965055;28;20038;-49
2021/08/15 06:33:31;;;;;;;12.13;5.50;;;;;;;20.57;70.37;101546.88;4966096;28;20031;-48
2021/08/15 06:35:56;;;;;;;17.92;5.75;;;;;;;22.25;64.87;101547.88;4969323;28;20034;-46
2021/08/15 06:38:22;;;;;;;16.42;5.63;;;;;;;23.61;60.89;101544.25;4961157;28;20035;-49
2021/08/15 06:40:47;;;;;;;13.18;5.32;;;;;;;23.68;59.23;101543.16;4970783;28;20037;-48
2021/08/15 06:43:13;;;;;;;9.95;4.93;;;;;;;23.57;59.57;101542.59;4966711;28;20315;-50
2021/08/15 06:45:39;;;;;;;13.90;5.32;;;;;;;24.14;57.86;101540.81;4961476;28;20571;-52
2021/08/15 06:48:05;;;;;;;16.20;5.20;;;;;;;24.72;56.59;101546.88;4962973;28;20393;-48
2021/08/15 06:50:31;;;;;;;12.50;4.90;;;;;;;25.57;53.56;101540.28;4965181;28;20045;-46
2021/08/15 06:52:57;;;;;;;14.05;5.00;;;;;;;26.36;51.93;101543.34;4966027;28;20407;-47
2021/08/15 06:55:22;;;;;;;11.20;4.35;;;;;;;27.67;50.22;101525.06;4965378;28;20356;-46
2021/08/15 06:57:47;;;;;;;13.80;5.03;;;;;;;28.51;46.01;101532.53;4967803;28;20034;-47
2021/08/15 07:00:13;;;;;;;11.68;4.63;;;;;;;29.10;44.51;101527.72;4963530;28;20390;-48
2021/08/15 07:02:40;;;;;;;10.52;4.40;;;;;;;28.70;46.51;101532.47;4964931;28;20082;-47
2021/08/15 07:05:07;;;;;;;11.70;4.47;;;;;;;28.76;45.68;101534.88;4965423;28;20074;-48
2021/08/15 07:07:33;;;;;;;9.95;4.40;;;;;;;28.96;44.58;101533.84;4963664;28;20034;-49
2021/08/15 07:09:58;;;;;;;12.15;4.80;;;;;;;28.85;46.09;101529.00;4977214;28;20777;-50
2021/08/15 07:12:23;;;;;;;13.38;5.00;;;;;;;29.11;44.57;101530.31;4962789;28;20039;-47
2021/08/15 07:14:49;;;;;;;12.00;5.07;;;;;;;29.46;45.09;101531.13;4968596;28;20340;-46
2021/08/15 07:17:14;;;;;;;13.18;4.75;;;;;;;29.16;43.98;101539.00;4965191;28;20039;-51
2021/08/15 07:19:40;;;;;;;10.55;4.30;;;;;;;29.27;42.91;101536.63;4966587;28;20122;-50
2021/08/15 07:22:05;;;;;;;10.98;4.30;;;;;;;29.35;44.03;101533.53;4970441;28;20113;-47
2021/08/15 07:24:31;;;;;;;10.48;4.45;;;;;;;29.40;43.29;101524.28;4966918;28;20525;-52
2021/08/15 07:26:56;;;;;;;11.32;4.40;;;;;;;29.61;43.07;101526.75;4963119;28;20042;-51
2021/08/15 07:29:22;;;;;;;11.75;4.72;;;;;;;29.89;42.43;101524.22;4961083;28;20057;-48
2021/08/15 07:31:48;;;;;;;12.10;4.60;;;;;;;29.99;43.71;101525.47;4965424;28;20090;-51
2021/08/15 07:34:13;;;;;;;10.73;4.28;;;;;;;29.89;44.22;101523.38;4960994;28;20445;-51
2021/08/15 07:36:39;;;;;;;10.27;4.20;;;;;;;30.19;42.65;101527.88;4967166;28;20267;-49
2021/08/15 07:39:05;;;;;;;11.43;4.70;;;;;;;30.19;41.58;101524.34;4965122;28;20046;-52
2021/08/15 07:41:30;;;;;;;10.23;4.60;;;;;;;30.13;42.15;101527.38;4965490;28;20623;-50
2021/08/15 07:43:56;;;;;;;12.23;4.90;;;;;;;29.52;44.92;101522.72;4964406;28;20034;-47
2021/08/15 07:46:21;;;;;;;11.43;4.85;;;;;;;29.22;44.33;101527.06;4969078;28;20023;-50
2021/08/15 07:48:46;;;;;;;13.88;4.78;;;;;;;29.77;41.58;101516.84;4966557;28;20937;-48
2021/08/15 07:51:12;;;;;;;9.23;4.43;;;;;;;29.56;41.87;101520.75;4958993;28;20529;-49
2021/08/15 07:53:37;;;;;;;15.20;4.50;;;;;;;28.94;45.69;101522.31;4937105;28;20032;-48
2021/08/15 07:56:03;;;;;;;11.38;4.57;;;;;;;28.99;44.33;101512.19;4958338;28;20031;-47
2021/08/15 07:58:28;;;;;;;11.15;4.35;;;;;;;28.93;45.85;101517.88;4961428;28;20028;-49
2021/08/15 08:00:55;;;;;;;11.07;4.80;;;;;;;29.04;44.25;101520.84;4957439;28;20038;-48
2021/08/15 08:03:21;;;;;;;13.00;4.50;;;;;;;28.93;45.39;101517.88;4958506;28;20038;-49
2021/08/15 08:05:47;;;;;;;10.90;4.63;;;;;;;29.04;44.24;101520.84;4959115;28;20107;-52
2021/08/15 08:08:12;;;;;;;12.48;4.68;;;;;;;29.36;43.12;101514.66;4954052;28;20041;-52
2021/08/15 08:10:38;;;;;;;10.02;4.68;;;;;;;29.54;42.87;101512.78;4963508;28;20038;-48
2021/08/15 08:13:06;;;;;;;14.07;5.05;;;;;;;29.15;42.53;101517.63;4960858;28;20328;-51
2021/08/15 08:15:31;;;;;;;11.20;4.57;;;;;;;28.93;45.06;101513.38;4959039;28;20113;-49
2021/08/15 08:17:57;;;;;;;10.77;4.43;;;;;;;28.65;44.65;101507.69;4963517;28;20053;-52
2021/08/15 08:20:22;;;;;;;9.13;4.28;;;;;;;28.58;47.75;101515.19;4961452;28;20061;-47
2021/08/15 08:22:49;;;;;;;13.52;5.20;;;;;;;28.11;46.14;101505.97;4944638;28;20036;-46
2021/08/15 08:25:15;;;;;;;13.05;4.60;;;;;;;27.85;46.20;101505.44;4958773;28;20119;-48
2021/08/15 08:27:41;;;;;;;14.05;4.72;;;;;;;27.55;47.48;101506.91;4961286;28;20474;-46
2021/08/15 08:30:07;;;;;;;12.15;4.80;;;;;;;27.17;49.13;101511.31;4958516;28;20037;-46
2021/08/15 08:32:32;;;;;;;14.07;5.00;;;;;;;26.92;49.34;101500.84;4966150;28;20026;-48
2021/08/15 08:34:58;;;;;;;12.20;5.05;;;;;;;26.64;49.87;101500.28;4947577;28;20041;-50
2021/08/15 08:37:23;;;;;;;14.10;5.20;;;;;;;26.54;51.04;101506.94;4964315;28;20058;-47
2021/08/15 08:39:49;;;;;;;11.82;4.72;;;;;;;26.07;51.37;101504.44;4930755;28;20350;-49
2021/08/15 08:42:14;;;;;;;12.45;5.03;;;;;;;26.08;51.76;101507.97;4963285;28;20033;-48
2021/08/15 08:44:40;;;;;;;13.07;4.72;;;;;;;26.15;54.89;101505.00;4976508;28;20046;-48
2021/08/15 08:47:10;;;;;;;11.55;4.80;;;;;;;25.92;55.01;101502.41;4960693;28;20153;-45
2021/08/15 08:49:39;;;;;;;11.70;4.85;;;;;;;26.02;51.96;101505.56;4959594;28;20141;-47
2021/08/15 08:52:05;;;;;;;12.15;4.80;;;;;;;25.92;53.40;101504.22;4959990;28;20037;-50
2021/08/15 08:54:31;;;;;;;13.40;5.20;;;;;;;25.97;54.43;101504.88;4963811;28;20030;-49
2021/08/15 08:56:57;;;;;;;12.90;5.05;;;;;;;26.15;51.00;101499.66;4961389;28;20031;-48
2021/08/15 08:59:23;;;;;;;10.75;4.78;;;;;;;26.25;51.76;101498.38;4967466;28;20102;-49
2021/08/15 09:01:48;;;;;;;12.23;4.70;;;;;;;26.33;51.78;101502.53;4955901;28;20498;-46
2021/08/15 09:04:14;;;;;;;13.57;5.03;;;;;;;26.52;51.16;101496.34;4965875;28;20033;-47
2021/08/15 09:06:40;;;;;;;11.93;4.60;;;;;;;26.72;51.47;101490.09;4965674;28;20077;-47
2021/08/15 09:09:14;;;;;;;10.88;4.28;;;;;;;26.59;49.97;101487.09;4959263;28;20034;-47
2021/08/15 09:11:40;;;;;;;13.30;4.28;;;;;;;26.74;49.05;101482.91;4967434;28;20082;-47
2021/08/15 09:14:08;;;;;;;10.23;4.10;;;;;;;26.60;51.70;101483.47;4963781;28;20026;-46
2021/08/15 09:16:50;;;;;;;11.48;4.40;;;;;;;26.36;49.93;101489.00;4968106;28;20051;-48
2021/08/15 09:19:35;;;;;;;10.00;4.20;;;;;;;26.37;49.71;101490.75;4964917;28;20438;-49
2021/08/15 09:22:22;;;;;;;14.20;4.45;;;;;;;26.61;52.95;101482.56;4957472;28;20049;-45
2021/08/15 09:24:47;;;;;;;8.75;4.18;;;;;;;26.65;51.38;101481.47;4958951;28;20038;-49
2021/08/15 09:27:20;;;;;;;11.93;4.20;;;;;;;26.36;49.74;101483.66;4963116;28;20470;-46
2021/08/15 09:30:06;;;;;;;11.73;4.43;;;;;;;26.23;51.10;101477.94;4963511;28;20070;-47
2021/08/15 09:32:32;;;;;;;9.18;4.20;;;;;;;26.20;53.45;101483.44;4959139;28;20038;-46
2021/08/15 09:34:58;;;;;;;10.90;4.22;;;;;;;26.30;52.74;101475.91;4974490;28;20085;-45
2021/08/15 09:37:32;;;;;;;13.50;4.45;;;;;;;26.15;50.57;101480.06;4962454;28;20053;-49
2021/08/15 09:39:58;;;;;;;10.60;4.65;;;;;;;26.24;51.02;101469.88;4969991;28;20033;-51
2021/08/15 09:42:43;;;;;;;11.45;4.20;;;;;;;26.31;50.73;101469.63;4965447;28;20038;-48
2021/08/15 09:45:17;;;;;;;11.50;4.20;;;;;;;26.50;50.80;101474.13;4966000;28;20777;-46
2021/08/15 09:47:43;;;;;;;9.85;4.20;;;;;;;26.54;49.92;101469.50;4964138;28;20122;-52
2021/08/15 09:50:21;;;;;;;10.52;4.10;;;;;;;26.16;50.61;101474.69;4969230;28;20026;-49
2021/08/15 09:52:46;;;;;;;12.32;4.28;;;;;;;26.20;51.74;101470.94;4960141;28;20961;-51
2021/08/15 09:55:12;;;;;;;13.75;4.40;;;;;;;26.22;50.48;101473.56;4971239;28;20133;-46
2021/08/15 09:57:38;;;;;;;11.88;4.40;;;;;;;26.41;49.01;101469.16;4959679;28;20073;-46
2021/08/15 10:00:05;;;;;;;9.88;3.92;;;;;;;26.51;52.46;101462.50;4966404;28;20023;-47
2021/08/15 10:02:31;;;;;;;10.40;4.18;;;;;;;26.46;50.72;101458.31;4967394;28;20035;-49
2021/08/15 10:05:03;;;;;;;10.30;3.78;;;;;;;26.48;50.36;101467.09;4973132;28;20039;-50
2021/08/15 10:07:30;;;;;;;8.90;3.60;;;;;;;26.50;49.06;101457.22;4968214;28;20101;-49
2021/08/15 10:09:55;;;;;;;7.75;3.38;;;;;;;26.40;48.82;101455.88;4962269;28;20026;-52
2021/08/15 10:12:20;;;;;;;8.75;3.33;;;;;;;26.37;47.87;101454.19;4967105;28;21893;-51
2021/08/15 10:14:46;;;;;;;6.95;3.20;;;;;;;26.15;50.16;101454.22;4966205;28;20038;-48
2021/08/15 10:17:14;;;;;;;8.82;3.05;;;;;;;25.85;51.51;101459.03;4965028;28;20112;-49
2021/08/15 10:20:00;;;;;;;9.95;3.10;;;;;;;25.66;54.65;101451.81;4963214;28;20038;-47
2021/08/15 10:22:34;;;;;;;7.70;3.15;;;;;;;26.03;52.09;101451.19;4982560;28;20037;-49
2021/08/15 10:25:04;;;;;;;6.30;2.58;;;;;;;26.21;51.10;101448.63;4964534;28;20343;-50
2021/08/15 10:27:41;;;;;;;7.00;2.72;;;;;;;26.42;50.86;101441.50;4962815;28;20073;-48
2021/08/15 10:30:12;;;;;;;5.97;2.35;;;;;;;26.55;51.42;101442.72;4967896;28;20072;-46
2021/08/15 10:32:38;;;;;;;6.63;2.65;;;;;;;26.76;51.27;101443.56;4965560;28;20037;-52
2021/08/15 10:35:03;;;;;;;7.55;2.40;;;;;;;26.61;49.91;101436.22;4967593;28;20030;-47
2021/08/15 10:37:28;;;;;;;7.90;2.67;;;;;;;26.79;50.89;101435.41;4961496;28;20688;-49
2021/08/15 10:40:02;;;;;;;5.72;2.38;;;;;;;26.99;48.96;101434.53;4968232;28;20306;-50
2021/08/15 10:42:41;;;;;;;5.15;2.40;;;;;;;26.86;49.65;101425.28;4969845;28;20022;-45
2021/08/15 10:45:13;;;;;;;6.68;2.33;;;;;;;26.74;49.00;101423.16;4968795;28;20034;-47
2021/08/15 10:47:38;;;;;;;6.72;2.40;;;;;;;26.82;48.69;101413.88;4968504;28;20128;-50
2021/08/15 10:50:06;;;;;;;9.02;2.30;;;;;;;27.05;48.08;101418.19;4961455;28;20023;-48
2021/08/15 10:52:42;;;;;;;5.30;2.47;;;;;;;27.29;47.92;101413.50;4964196;28;21288;-51
2021/08/15 10:55:16;;;;;;;4.75;2.30;;;;;;;27.26;47.89;101410.97;4964658;28;20018;-50
2021/08/15 10:57:46;;;;;;;4.43;1.98;;;;;;;27.24;46.30;101416.41;4963130;28;20027;-49
2021/08/15 11:00:30;;;;;;;6.78;2.40;;;;;;;27.40;47.46;101413.84;4963430;28;20033;-50
2021/08/15 11:02:59;;;;;;;9.07;2.60;;;;;;;27.58;47.38;101415.66;4970378;28;20032;-50
2021/08/15 11:05:38;;;;;;;7.35;2.58;;;;;;;27.50;47.44;101406.25;4962239;28;20473;-47
2021/08/15 11:08:04;;;;;;;7.93;2.67;;;;;;;27.57;44.17;101411.25;4972045;28;20092;-46
2021/08/15 11:11:04;;;;;;;9.38;2.22;;;;;;;27.36;44.36;101406.91;4964117;28;20027;-48
2021/08/15 11:13:33;;;;;;;7.88;2.80;;;;;;;27.36;44.43;101410.47;4968436;28;20296;-50
2021/08/15 11:16:27;;;;;;;8.13;2.70;;;;;;;26.92;45.34;101409.00;4975345;28;20670;-46
2021/08/15 11:19:08;;;;;;;5.00;2.72;;;;;;;26.84;47.03;101409.28;4969785;28;20034;-48
2021/08/15 11:22:11;;;;;;;6.30;2.70;;;;;;;26.97;46.77;101401.63;4959302;28;20502;-48